Terminal Aerodrome Forecast
Issued by NWS

Home | Current Version | Previous Version | Text Only | Print | Product List | Glossary On
Versions: 1 2 3 4 5 6 7 8 9 10 11 12 13 14 15 16 17 18 19 20
000
FTUS43 KDVN 112333
TAFBRL
TAF
KBRL 112333Z 1200/1224 32018G26KT 5SM -RASN BR OVC012
     FM120200 33020G32KT P6SM OVC015
     FM120700 33016G25KT P6SM BKN025
     FM121000 32012KT P6SM SCT030=

USA.gov is the U.S. government's official web portal to all federal, state and local government web resources and services.